sensor_id;sensor_type;location;lat;lon;timestamp;pressure;altitude;pressure_sealevel;temperature;humidity
57827;BME280;43656;57.746;11.780;2022-11-20T00:00:27;101435.25;;;1.86;84.35
57827;BME280;43656;57.746;11.780;2022-11-20T00:02:52;101487.09;;;2.23;85.24
57827;BME280;43656;57.746;11.780;2022-11-20T00:05:19;101483.13;;;2.38;83.79
57827;BME280;43656;57.746;11.780;2022-11-20T00:07:46;101485.38;;;2.22;84.67
57827;BME280;43656;57.746;11.780;2022-11-20T00:10:11;101456.31;;;2.20;83.18
57827;BME280;43656;57.746;11.780;2022-11-20T00:12:36;101478.97;;;2.24;84.62
57827;BME280;43656;57.746;11.780;2022-11-20T00:15:03;101472.72;;;2.25;84.08
57827;BME280;43656;57.746;11.780;2022-11-20T00:17:29;101483.00;;;2.40;83.38
57827;BME280;43656;57.746;11.780;2022-11-20T00:19:54;101483.91;;;2.50;82.78
57827;BME280;43656;57.746;11.780;2022-11-20T00:22:20;101453.66;;;2.20;82.92
57827;BME280;43656;57.746;11.780;2022-11-20T00:24:45;101477.38;;;2.33;83.00
57827;BME280;43656;57.746;11.780;2022-11-20T00:27:11;101450.34;;;2.07;83.95
57827;BME280;43656;57.746;11.780;2022-11-20T00:29:36;101470.56;;;2.19;83.78
57827;BME280;43656;57.746;11.780;2022-11-20T00:32:01;101469.34;;;2.23;84.30
57827;BME280;43656;57.746;11.780;2022-11-20T00:34:27;101471.66;;;2.17;84.36
57827;BME280;43656;57.746;11.780;2022-11-20T00:36:52;101462.97;;;2.15;83.67
57827;BME280;43656;57.746;11.780;2022-11-20T00:39:17;101479.63;;;2.17;83.56
57827;BME280;43656;57.746;11.780;2022-11-20T00:41:43;101467.59;;;2.13;83.95
57827;BME280;43656;57.746;11.780;2022-11-20T00:44:08;101457.41;;;2.18;83.17
57827;BME280;43656;57.746;11.780;2022-11-20T00:46:34;101467.19;;;2.17;83.09
57827;BME280;43656;57.746;11.780;2022-11-20T00:48:59;101475.63;;;2.22;83.04
57827;BME280;43656;57.746;11.780;2022-11-20T00:51:28;101484.03;;;2.27;83.04
57827;BME280;43656;57.746;11.780;2022-11-20T00:53:57;101455.72;;;2.17;82.51
57827;BME280;43656;57.746;11.780;2022-11-20T00:56:24;101474.50;;;2.25;82.40
57827;BME280;43656;57.746;11.780;2022-11-20T00:58:49;101485.78;;;2.38;82.35
57827;BME280;43656;57.746;11.780;2022-11-20T01:01:17;101480.59;;;2.16;83.12
57827;BME280;43656;57.746;11.780;2022-11-20T01:03:45;101484.94;;;2.17;83.13
57827;BME280;43656;57.746;11.780;2022-11-20T01:06:25;101441.38;;;1.87;83.64
57827;BME280;43656;57.746;11.780;2022-11-20T01:08:53;101471.50;;;2.18;83.35
57827;BME280;43656;57.746;11.780;2022-11-20T01:11:27;101453.84;;;2.07;82.65
57827;BME280;43656;57.746;11.780;2022-11-20T01:13:54;101472.38;;;2.19;82.82
57827;BME280;43656;57.746;11.780;2022-11-20T01:16:31;101474.25;;;2.28;82.05
57827;BME280;43656;57.746;11.780;2022-11-20T01:19:02;101472.81;;;2.03;82.68
57827;BME280;43656;57.746;11.780;2022-11-20T01:21:29;101479.28;;;2.10;82.98
57827;BME280;43656;57.746;11.780;2022-11-20T01:23:55;101435.75;;;1.80;83.31
57827;BME280;43656;57.746;11.780;2022-11-20T01:26:24;101484.34;;;2.13;82.92
57827;BME280;43656;57.746;11.780;2022-11-20T01:28:51;101484.13;;;2.05;83.33
57827;BME280;43656;57.746;11.780;2022-11-20T01:31:24;101490.16;;;2.07;83.50
57827;BME280;43656;57.746;11.780;2022-11-20T01:33:51;101483.84;;;2.19;83.01
57827;BME280;43656;57.746;11.780;2022-11-20T01:36:19;101482.03;;;2.20;82.36
57827;BME280;43656;57.746;11.780;2022-11-20T01:38:47;101493.34;;;2.22;81.71
57827;BME280;43656;57.746;11.780;2022-11-20T01:41:14;101469.91;;;2.06;81.90
57827;BME280;43656;57.746;11.780;2022-11-20T01:44:00;101476.69;;;1.99;82.48
57827;BME280;43656;57.746;11.780;2022-11-20T01:46:26;101480.72;;;2.14;82.48
57827;BME280;43656;57.746;11.780;2022-11-20T01:49:11;101475.41;;;2.14;82.15
57827;BME280;43656;57.746;11.780;2022-11-20T01:51:51;101470.16;;;2.03;83.01
57827;BME280;43656;57.746;11.780;2022-11-20T01:54:23;101472.22;;;1.99;83.24
57827;BME280;43656;57.746;11.780;2022-11-20T01:56:53;101466.78;;;2.01;83.27
57827;BME280;43656;57.746;11.780;2022-11-20T01:59:20;101463.44;;;1.99;83.19
57827;BME280;43656;57.746;11.780;2022-11-20T02:01:46;101463.69;;;1.84;83.98
57827;BME280;43656;57.746;11.780;2022-11-20T02:04:13;101457.00;;;2.01;83.17
57827;BME280;43656;57.746;11.780;2022-11-20T02:06:40;101464.19;;;1.90;83.73
57827;BME280;43656;57.746;11.780;2022-11-20T02:09:07;101454.00;;;1.95;83.40
57827;BME280;43656;57.746;11.780;2022-11-20T02:11:33;101461.72;;;1.98;83.75
57827;BME280;43656;57.746;11.780;2022-11-20T02:14:01;101459.66;;;2.01;83.52
57827;BME280;43656;57.746;11.780;2022-11-20T02:16:37;101451.31;;;2.06;82.68
57827;BME280;43656;57.746;11.780;2022-11-20T02:19:09;101454.94;;;2.05;82.72
57827;BME280;43656;57.746;11.780;2022-11-20T02:24:32;101445.09;;;1.96;84.11
57827;BME280;43656;57.746;11.780;2022-11-20T02:27:10;101440.69;;;2.06;84.03
57827;BME280;43656;57.746;11.780;2022-11-20T02:29:40;101436.22;;;2.06;83.45
57827;BME280;43656;57.746;11.780;2022-11-20T02:32:20;101415.25;;;1.82;83.64
57827;BME280;43656;57.746;11.780;2022-11-20T02:34:46;101428.19;;;1.97;83.54
57827;BME280;43656;57.746;11.780;2022-11-20T02:37:12;101401.31;;;1.69;83.70
57827;BME280;43656;57.746;11.780;2022-11-20T02:39:38;101426.88;;;1.91;83.13
57827;BME280;43656;57.746;11.780;2022-11-20T02:42:03;101415.56;;;1.89;82.80
57827;BME280;43656;57.746;11.780;2022-11-20T02:44:29;101423.00;;;1.95;82.85
57827;BME280;43656;57.746;11.780;2022-11-20T02:47:14;101438.22;;;1.93;83.22
57827;BME280;43656;57.746;11.780;2022-11-20T02:49:39;101433.09;;;1.80;84.75
57827;BME280;43656;57.746;11.780;2022-11-20T02:52:05;101439.88;;;1.73;85.11
57827;BME280;43656;57.746;11.780;2022-11-20T02:54:30;101436.97;;;1.76;84.95
57827;BME280;43656;57.746;11.780;2022-11-20T02:56:56;101400.00;;;1.52;85.40
57827;BME280;43656;57.746;11.780;2022-11-20T02:59:21;101413.03;;;1.55;86.35
57827;BME280;43656;57.746;11.780;2022-11-20T03:01:46;101437.97;;;1.64;86.71
57827;BME280;43656;57.746;11.780;2022-11-20T03:04:12;101404.72;;;1.49;87.45
57827;BME280;43656;57.746;11.780;2022-11-20T03:06:37;101423.72;;;1.65;87.70
57827;BME280;43656;57.746;11.780;2022-11-20T03:09:02;101435.13;;;1.56;88.72
57827;BME280;43656;57.746;11.780;2022-11-20T03:11:28;101433.50;;;1.64;89.39
57827;BME280;43656;57.746;11.780;2022-11-20T03:13:53;101426.13;;;1.68;88.82
57827;BME280;43656;57.746;11.780;2022-11-20T03:16:21;101403.97;;;1.58;88.91
57827;BME280;43656;57.746;11.780;2022-11-20T03:18:46;101416.03;;;1.62;89.66
57827;BME280;43656;57.746;11.780;2022-11-20T03:21:13;101415.28;;;1.71;89.23
57827;BME280;43656;57.746;11.780;2022-11-20T03:23:39;101345.50;;;1.27;89.03
57827;BME280;43656;57.746;11.780;2022-11-20T03:26:12;101414.03;;;1.75;88.59
57827;BME280;43656;57.746;11.780;2022-11-20T03:28:42;101403.81;;;1.71;88.90
57827;BME280;43656;57.746;11.780;2022-11-20T03:31:12;101381.44;;;1.52;88.79
57827;BME280;43656;57.746;11.780;2022-11-20T03:33:40;101384.09;;;1.52;89.39
57827;BME280;43656;57.746;11.780;2022-11-20T03:36:10;101358.63;;;1.29;89.42
57827;BME280;43656;57.746;11.780;2022-11-20T03:38:36;101417.66;;;1.74;89.05
57827;BME280;43656;57.746;11.780;2022-11-20T03:41:18;101411.91;;;1.69;89.10
57827;BME280;43656;57.746;11.780;2022-11-20T03:44:00;101405.41;;;1.62;88.61
57827;BME280;43656;57.746;11.780;2022-11-20T03:46:27;101413.63;;;1.59;89.67
57827;BME280;43656;57.746;11.780;2022-11-20T03:48:53;101419.78;;;1.59;89.97
57827;BME280;43656;57.746;11.780;2022-11-20T03:51:26;101415.56;;;1.57;90.20
57827;BME280;43656;57.746;11.780;2022-11-20T03:53:54;101416.78;;;1.53;90.42
57827;BME280;43656;57.746;11.780;2022-11-20T03:56:23;101380.91;;;1.37;90.40
57827;BME280;43656;57.746;11.780;2022-11-20T03:58:49;101397.50;;;1.51;90.33
57827;BME280;43656;57.746;11.780;2022-11-20T04:01:17;101363.44;;;1.35;90.03
57827;BME280;43656;57.746;11.780;2022-11-20T04:03:43;101394.47;;;1.55;90.22
57827;BME280;43656;57.746;11.780;2022-11-20T04:06:11;101390.06;;;1.65;89.49
57827;BME280;43656;57.746;11.780;2022-11-20T04:08:37;101397.25;;;1.54;89.84
57827;BME280;43656;57.746;11.780;2022-11-20T04:13:36;101377.03;;;1.41;90.32
57827;BME280;43656;57.746;11.780;2022-11-20T04:16:01;101382.06;;;1.56;90.11
57827;BME280;43656;57.746;11.780;2022-11-20T04:18:27;101386.41;;;1.57;89.73
57827;BME280;43656;57.746;11.780;2022-11-20T04:20:52;101338.53;;;1.26;90.05
57827;BME280;43656;57.746;11.780;2022-11-20T04:23:18;101350.66;;;1.40;89.82
57827;BME280;43656;57.746;11.780;2022-11-20T04:25:43;101368.13;;;1.43;89.60
57827;BME280;43656;57.746;11.780;2022-11-20T04:28:09;101357.69;;;1.30;89.67
57827;BME280;43656;57.746;11.780;2022-11-20T04:30:34;101365.00;;;1.37;90.43
57827;BME280;43656;57.746;11.780;2022-11-20T04:33:00;101365.72;;;1.39;90.50
57827;BME280;43656;57.746;11.780;2022-11-20T04:35:25;101359.66;;;1.49;90.13
57827;BME280;43656;57.746;11.780;2022-11-20T04:37:51;101357.19;;;1.36;90.00
57827;BME280;43656;57.746;11.780;2022-11-20T04:40:19;101361.63;;;1.35;90.81
57827;BME280;43656;57.746;11.780;2022-11-20T04:42:47;101356.28;;;1.47;89.79
57827;BME280;43656;57.746;11.780;2022-11-20T04:45:12;101351.75;;;1.37;90.02
57827;BME280;43656;57.746;11.780;2022-11-20T04:47:37;101354.94;;;1.52;89.08
57827;BME280;43656;57.746;11.780;2022-11-20T04:50:03;101348.69;;;1.42;89.11
57827;BME280;43656;57.746;11.780;2022-11-20T04:52:28;101340.94;;;1.29;89.87
57827;BME280;43656;57.746;11.780;2022-11-20T04:54:54;101329.84;;;1.24;89.98
57827;BME280;43656;57.746;11.780;2022-11-20T04:57:22;101340.13;;;1.17;90.70
57827;BME280;43656;57.746;11.780;2022-11-20T04:59:48;101337.09;;;1.22;90.51
57827;BME280;43656;57.746;11.780;2022-11-20T05:02:13;101330.44;;;1.28;90.49
57827;BME280;43656;57.746;11.780;2022-11-20T05:04:38;101317.00;;;1.20;90.60
57827;BME280;43656;57.746;11.780;2022-11-20T05:07:04;101337.56;;;1.27;90.74
57827;BME280;43656;57.746;11.780;2022-11-20T05:09:37;101335.31;;;1.23;90.66
57827;BME280;43656;57.746;11.780;2022-11-20T05:12:03;101328.28;;;1.33;89.91
57827;BME280;43656;57.746;11.780;2022-11-20T05:14:28;101322.38;;;1.29;89.71
57827;BME280;43656;57.746;11.780;2022-11-20T05:16:54;101323.31;;;1.28;89.93
57827;BME280;43656;57.746;11.780;2022-11-20T05:19:19;101315.97;;;1.32;89.54
57827;BME280;43656;57.746;11.780;2022-11-20T05:21:44;101313.13;;;1.24;89.89
57827;BME280;43656;57.746;11.780;2022-11-20T05:24:10;101315.13;;;1.31;89.79
57827;BME280;43656;57.746;11.780;2022-11-20T05:26:35;101313.38;;;1.41;88.99
57827;BME280;43656;57.746;11.780;2022-11-20T05:29:03;101304.41;;;1.33;88.80
57827;BME280;43656;57.746;11.780;2022-11-20T05:31:29;101267.50;;;1.09;89.07
57827;BME280;43656;57.746;11.780;2022-11-20T05:33:56;101310.31;;;1.25;89.43
57827;BME280;43656;57.746;11.780;2022-11-20T05:36:21;101302.50;;;1.24;89.47
57827;BME280;43656;57.746;11.780;2022-11-20T05:38:47;101257.41;;;1.03;89.11
57827;BME280;43656;57.746;11.780;2022-11-20T05:41:14;101293.75;;;1.44;88.54
57827;BME280;43656;57.746;11.780;2022-11-20T05:43:42;101274.66;;;1.29;88.15
57827;BME280;43656;57.746;11.780;2022-11-20T05:46:09;101295.59;;;1.32;88.69
57827;BME280;43656;57.746;11.780;2022-11-20T05:48:35;101300.38;;;1.38;88.77
57827;BME280;43656;57.746;11.780;2022-11-20T05:51:03;101290.56;;;1.29;89.12
57827;BME280;43656;57.746;11.780;2022-11-20T05:53:29;101300.38;;;1.38;88.91
57827;BME280;43656;57.746;11.780;2022-11-20T05:56:02;101287.84;;;1.40;88.63
57827;BME280;43656;57.746;11.780;2022-11-20T05:58:29;101291.28;;;1.52;87.95
57827;BME280;43656;57.746;11.780;2022-11-20T06:00:55;101290.19;;;1.55;87.58
57827;BME280;43656;57.746;11.780;2022-11-20T06:03:27;101294.56;;;1.45;87.96
57827;BME280;43656;57.746;11.780;2022-11-20T06:05:53;101280.81;;;1.30;88.42
57827;BME280;43656;57.746;11.780;2022-11-20T06:08:18;101283.19;;;1.33;88.56
57827;BME280;43656;57.746;11.780;2022-11-20T06:10:43;101260.94;;;1.24;88.24
57827;BME280;43656;57.746;11.780;2022-11-20T06:13:09;101287.28;;;1.37;88.63
57827;BME280;43656;57.746;11.780;2022-11-20T06:15:34;101281.53;;;1.53;88.02
57827;BME280;43656;57.746;11.780;2022-11-20T06:17:59;101289.09;;;1.57;87.54
57827;BME280;43656;57.746;11.780;2022-11-20T06:20:25;101268.19;;;1.64;87.34
57827;BME280;43656;57.746;11.780;2022-11-20T06:22:50;101275.38;;;1.73;86.82
57827;BME280;43656;57.746;11.780;2022-11-20T06:25:15;101266.69;;;1.71;86.69
57827;BME280;43656;57.746;11.780;2022-11-20T06:27:41;101270.06;;;1.73;86.89
57827;BME280;43656;57.746;11.780;2022-11-20T06:30:07;101271.16;;;1.71;86.79
57827;BME280;43656;57.746;11.780;2022-11-20T06:32:32;101273.47;;;1.85;85.80
57827;BME280;43656;57.746;11.780;2022-11-20T06:34:58;101266.91;;;1.79;86.66
57827;BME280;43656;57.746;11.780;2022-11-20T06:37:23;101237.59;;;1.60;86.84
57827;BME280;43656;57.746;11.780;2022-11-20T06:39:48;101257.97;;;1.80;86.50
57827;BME280;43656;57.746;11.780;2022-11-20T06:42:14;101255.56;;;1.77;86.73
57827;BME280;43656;57.746;11.780;2022-11-20T06:44:39;101263.28;;;1.80;86.25
57827;BME280;43656;57.746;11.780;2022-11-20T06:47:05;101218.84;;;1.73;86.05
57827;BME280;43656;57.746;11.780;2022-11-20T06:49:30;101254.53;;;1.90;85.94
57827;BME280;43656;57.746;11.780;2022-11-20T06:51:55;101254.06;;;1.84;86.09
57827;BME280;43656;57.746;11.780;2022-11-20T06:54:21;101249.16;;;1.80;86.52
57827;BME280;43656;57.746;11.780;2022-11-20T06:56:47;101231.16;;;1.83;85.83
57827;BME280;43656;57.746;11.780;2022-11-20T06:59:13;101241.47;;;2.07;84.93
57827;BME280;43656;57.746;11.780;2022-11-20T07:01:38;101247.72;;;1.97;84.93
57827;BME280;43656;57.746;11.780;2022-11-20T07:04:04;101247.41;;;1.90;85.37
57827;BME280;43656;57.746;11.780;2022-11-20T07:06:29;101241.84;;;1.93;85.43
57827;BME280;43656;57.746;11.780;2022-11-20T07:08:55;101146.28;;;1.32;85.25
57827;BME280;43656;57.746;11.780;2022-11-20T07:11:20;101237.72;;;2.10;84.29
57827;BME280;43656;57.746;11.780;2022-11-20T07:13:46;101205.56;;;1.73;85.29
57827;BME280;43656;57.746;11.780;2022-11-20T07:16:11;101210.00;;;1.72;85.07
57827;BME280;43656;57.746;11.780;2022-11-20T07:18:36;101231.66;;;1.98;85.76
57827;BME280;43656;57.746;11.780;2022-11-20T07:21:03;101232.50;;;1.99;85.25
57827;BME280;43656;57.746;11.780;2022-11-20T07:23:29;101231.53;;;2.00;85.45
57827;BME280;43656;57.746;11.780;2022-11-20T07:25:54;101232.31;;;1.91;85.77
57827;BME280;43656;57.746;11.780;2022-11-20T07:28:20;101230.50;;;1.91;85.65
57827;BME280;43656;57.746;11.780;2022-11-20T07:30:52;101224.72;;;2.07;85.07
57827;BME280;43656;57.746;11.780;2022-11-20T07:33:23;101198.69;;;2.01;84.98
57827;BME280;43656;57.746;11.780;2022-11-20T07:35:49;101216.91;;;2.15;84.57
57827;BME280;43656;57.746;11.780;2022-11-20T07:38:14;101214.53;;;2.12;83.75
57827;BME280;43656;57.746;11.780;2022-11-20T07:40:40;101213.78;;;2.00;84.15
57827;BME280;43656;57.746;11.780;2022-11-20T07:43:05;101228.19;;;2.07;84.17
57827;BME280;43656;57.746;11.780;2022-11-20T07:45:31;101222.81;;;2.28;83.12
57827;BME280;43656;57.746;11.780;2022-11-20T07:47:56;101207.19;;;2.35;82.89
57827;BME280;43656;57.746;11.780;2022-11-20T07:50:22;101208.44;;;2.31;82.41
57827;BME280;43656;57.746;11.780;2022-11-20T07:52:47;101211.59;;;2.15;82.78
57827;BME280;43656;57.746;11.780;2022-11-20T07:55:13;101204.78;;;2.22;82.99
57827;BME280;43656;57.746;11.780;2022-11-20T07:57:38;101197.56;;;2.44;82.34
57827;BME280;43656;57.746;11.780;2022-11-20T08:00:05;101200.09;;;2.35;82.82
57827;BME280;43656;57.746;11.780;2022-11-20T08:02:32;101206.06;;;2.38;81.99
57827;BME280;43656;57.746;11.780;2022-11-20T08:04:57;101209.75;;;2.46;82.06
57827;BME280;43656;57.746;11.780;2022-11-20T08:07:23;101205.00;;;2.50;82.02
57827;BME280;43656;57.746;11.780;2022-11-20T08:09:48;101194.66;;;2.56;81.39
57827;BME280;43656;57.746;11.780;2022-11-20T08:12:20;101199.41;;;2.53;81.44
57827;BME280;43656;57.746;11.780;2022-11-20T08:15:21;101201.81;;;2.66;81.81
57827;BME280;43656;57.746;11.780;2022-11-20T08:17:47;101203.22;;;2.70;81.08
57827;BME280;43656;57.746;11.780;2022-11-20T08:20:12;101188.38;;;2.67;81.56
57827;BME280;43656;57.746;11.780;2022-11-20T08:22:38;101178.84;;;2.55;81.21
57827;BME280;43656;57.746;11.780;2022-11-20T08:25:04;101168.34;;;2.44;81.47
57827;BME280;43656;57.746;11.780;2022-11-20T08:27:32;101198.47;;;2.73;81.11
57827;BME280;43656;57.746;11.780;2022-11-20T08:29:57;101192.03;;;2.66;80.82
57827;BME280;43656;57.746;11.780;2022-11-20T08:32:23;101185.72;;;2.87;80.85
57827;BME280;43656;57.746;11.780;2022-11-20T08:34:49;101189.94;;;2.89;80.69
57827;BME280;43656;57.746;11.780;2022-11-20T08:37:14;101190.22;;;2.96;80.39
57827;BME280;43656;57.746;11.780;2022-11-20T08:39:39;101193.56;;;2.98;80.62
57827;BME280;43656;57.746;11.780;2022-11-20T08:42:08;101170.34;;;2.80;80.60
57827;BME280;43656;57.746;11.780;2022-11-20T08:44:33;101168.66;;;2.79;80.51
57827;BME280;43656;57.746;11.780;2022-11-20T08:47:00;101185.19;;;3.12;80.41
57827;BME280;43656;57.746;11.780;2022-11-20T08:49:25;101185.28;;;3.20;80.09
57827;BME280;43656;57.746;11.780;2022-11-20T08:51:51;101178.03;;;3.03;79.54
57827;BME280;43656;57.746;11.780;2022-11-20T08:54:18;101189.50;;;3.03;80.10
57827;BME280;43656;57.746;11.780;2022-11-20T08:56:46;101189.66;;;3.21;79.64
57827;BME280;43656;57.746;11.780;2022-11-20T08:59:12;101183.06;;;3.16;79.82
57827;BME280;43656;57.746;11.780;2022-11-20T09:01:37;101142.78;;;3.01;79.40
57827;BME280;43656;57.746;11.780;2022-11-20T09:04:04;101180.94;;;3.39;78.33
57827;BME280;43656;57.746;11.780;2022-11-20T09:06:29;101179.66;;;3.43;78.76
57827;BME280;43656;57.746;11.780;2022-11-20T09:08:55;101147.78;;;3.23;78.63
57827;BME280;43656;57.746;11.780;2022-11-20T09:11:22;101180.19;;;3.56;78.52
57827;BME280;43656;57.746;11.780;2022-11-20T09:13:47;101176.84;;;3.44;78.08
57827;BME280;43656;57.746;11.780;2022-11-20T09:16:13;101176.03;;;3.24;78.78
57827;BME280;43656;57.746;11.780;2022-11-20T09:18:38;101154.81;;;3.05;78.74
57827;BME280;43656;57.746;11.780;2022-11-20T09:21:13;101167.22;;;3.34;79.01
57827;BME280;43656;57.746;11.780;2022-11-20T09:23:39;101159.41;;;3.22;79.03
57827;BME280;43656;57.746;11.780;2022-11-20T09:26:06;101178.66;;;3.44;78.53
57827;BME280;43656;57.746;11.780;2022-11-20T09:28:32;101173.78;;;3.49;77.93
57827;BME280;43656;57.746;11.780;2022-11-20T09:31:04;101166.50;;;3.51;78.21
57827;BME280;43656;57.746;11.780;2022-11-20T09:33:32;101137.81;;;3.45;77.65
57827;BME280;43656;57.746;11.780;2022-11-20T09:35:58;101158.91;;;3.56;77.86
57827;BME280;43656;57.746;11.780;2022-11-20T09:38:23;101155.16;;;3.49;76.90
57827;BME280;43656;57.746;11.780;2022-11-20T09:41:03;101144.91;;;3.54;76.66
57827;BME280;43656;57.746;11.780;2022-11-20T09:43:46;101144.34;;;3.50;77.02
57827;BME280;43656;57.746;11.780;2022-11-20T09:46:25;101148.84;;;3.50;78.28
57827;BME280;43656;57.746;11.780;2022-11-20T09:54:29;101122.53;;;3.37;78.33
57827;BME280;43656;57.746;11.780;2022-11-20T09:56:59;101128.41;;;3.41;78.60
57827;BME280;43656;57.746;11.780;2022-11-20T09:59:50;101121.34;;;3.22;78.86
57827;BME280;43656;57.746;11.780;2022-11-20T10:05:51;101120.19;;;3.24;79.90
57827;BME280;43656;57.746;11.780;2022-11-20T10:08:39;101120.50;;;3.21;80.53
57827;BME280;43656;57.746;11.780;2022-11-20T10:14:18;101100.19;;;3.20;81.37
57827;BME280;43656;57.746;11.780;2022-11-20T10:21:58;101093.47;;;3.26;81.87
57827;BME280;43656;57.746;11.780;2022-11-20T10:32:32;101049.91;;;2.80;85.23
57827;BME280;43656;57.746;11.780;2022-11-20T10:37:44;101078.81;;;3.12;84.64
57827;BME280;43656;57.746;11.780;2022-11-20T10:42:57;101067.72;;;3.26;83.19
57827;BME280;43656;57.746;11.780;2022-11-20T10:47:51;101067.63;;;3.18;83.13
57827;BME280;43656;57.746;11.780;2022-11-20T10:50:21;101063.19;;;3.37;83.03
57827;BME280;43656;57.746;11.780;2022-11-20T10:56:14;101024.94;;;3.10;83.16
57827;BME280;43656;57.746;11.780;2022-11-20T11:01:43;101026.81;;;3.27;81.43
57827;BME280;43656;57.746;11.780;2022-11-20T11:04:43;101044.44;;;3.66;80.86
57827;BME280;43656;57.746;11.780;2022-11-20T11:09:50;101028.97;;;3.97;78.85
57827;BME280;43656;57.746;11.780;2022-11-20T11:12:17;101031.56;;;3.89;78.14
57827;BME280;43656;57.746;11.780;2022-11-20T11:14:55;101028.38;;;3.85;78.64
57827;BME280;43656;57.746;11.780;2022-11-20T11:17:29;101005.06;;;3.69;78.22
57827;BME280;43656;57.746;11.780;2022-11-20T11:22:29;101008.66;;;3.78;78.29
57827;BME280;43656;57.746;11.780;2022-11-20T11:24:55;101008.13;;;4.10;77.30
57827;BME280;43656;57.746;11.780;2022-11-20T11:27:21;101008.13;;;3.74;78.74
57827;BME280;43656;57.746;11.780;2022-11-20T11:29:46;100998.44;;;3.73;79.50
57827;BME280;43656;57.746;11.780;2022-11-20T11:32:20;101011.81;;;3.64;79.37
57827;BME280;43656;57.746;11.780;2022-11-20T11:35:03;101002.47;;;3.60;79.01
57827;BME280;43656;57.746;11.780;2022-11-20T11:37:37;101011.97;;;3.62;79.60
57827;BME280;43656;57.746;11.780;2022-11-20T11:40:04;101014.53;;;3.82;79.41
57827;BME280;43656;57.746;11.780;2022-11-20T11:42:30;100993.91;;;3.84;78.39
57827;BME280;43656;57.746;11.780;2022-11-20T11:44:59;100993.47;;;3.61;79.88
57827;BME280;43656;57.746;11.780;2022-11-20T11:47:42;100991.97;;;3.58;79.22
57827;BME280;43656;57.746;11.780;2022-11-20T11:58:46;100977.09;;;3.65;78.95
57827;BME280;43656;57.746;11.780;2022-11-20T12:01:27;100975.84;;;3.60;79.91
57827;BME280;43656;57.746;11.780;2022-11-20T12:06:31;100967.03;;;3.77;79.62
57827;BME280;43656;57.746;11.780;2022-11-20T12:09:08;100979.16;;;3.71;80.27
57827;BME280;43656;57.746;11.780;2022-11-20T12:14:19;100959.47;;;3.64;81.08
57827;BME280;43656;57.746;11.780;2022-11-20T12:16:49;100964.38;;;3.77;79.97
57827;BME280;43656;57.746;11.780;2022-11-20T12:19:15;100923.69;;;3.49;80.13
57827;BME280;43656;57.746;11.780;2022-11-20T12:22:05;100959.75;;;3.61;80.86
57827;BME280;43656;57.746;11.780;2022-11-20T12:25:04;100956.63;;;3.84;79.86
57827;BME280;43656;57.746;11.780;2022-11-20T12:30:32;100951.44;;;3.46;81.77
57827;BME280;43656;57.746;11.780;2022-11-20T12:35:56;100948.72;;;3.74;80.26
57827;BME280;43656;57.746;11.780;2022-11-20T12:48:05;100914.78;;;3.94;79.67
57827;BME280;43656;57.746;11.780;2022-11-20T12:51:03;100922.09;;;3.74;80.41
57827;BME280;43656;57.746;11.780;2022-11-20T12:56:49;100919.38;;;3.84;79.81
57827;BME280;43656;57.746;11.780;2022-11-20T12:59:31;100913.16;;;3.75;80.06
57827;BME280;43656;57.746;11.780;2022-11-20T13:02:25;100876.34;;;3.35;81.07
57827;BME280;43656;57.746;11.780;2022-11-20T13:05:09;100899.91;;;3.65;80.23
57827;BME280;43656;57.746;11.780;2022-11-20T13:07:41;100906.75;;;3.86;80.02
57827;BME280;43656;57.746;11.780;2022-11-20T13:10:18;100899.06;;;3.83;80.40
57827;BME280;43656;57.746;11.780;2022-11-20T13:12:51;100896.44;;;3.65;80.60
57827;BME280;43656;57.746;11.780;2022-11-20T13:15:45;100866.53;;;3.53;80.79
57827;BME280;43656;57.746;11.780;2022-11-20T13:18:14;100893.00;;;3.72;81.68
57827;BME280;43656;57.746;11.780;2022-11-20T13:20:46;100898.38;;;3.63;81.17
57827;BME280;43656;57.746;11.780;2022-11-20T13:23:23;100893.91;;;3.81;81.04
57827;BME280;43656;57.746;11.780;2022-11-20T13:25:50;100869.78;;;3.47;81.51
57827;BME280;43656;57.746;11.780;2022-11-20T13:30:51;100902.41;;;3.49;81.62
57827;BME280;43656;57.746;11.780;2022-11-20T13:33:35;100886.38;;;3.76;80.89
57827;BME280;43656;57.746;11.780;2022-11-20T13:36:04;100887.59;;;3.64;81.27
57827;BME280;43656;57.746;11.780;2022-11-20T13:38:46;100889.03;;;3.76;81.68
57827;BME280;43656;57.746;11.780;2022-11-20T13:41:35;100884.25;;;3.80;80.50
57827;BME280;43656;57.746;11.780;2022-11-20T13:46:38;100869.03;;;3.72;81.79
57827;BME280;43656;57.746;11.780;2022-11-20T13:49:09;100856.66;;;3.63;81.46
57827;BME280;43656;57.746;11.780;2022-11-20T14:00:19;100863.50;;;3.48;84.37
57827;BME280;43656;57.746;11.780;2022-11-20T14:05:25;100858.19;;;3.48;85.71
57827;BME280;43656;57.746;11.780;2022-11-20T14:07:51;100868.19;;;3.36;86.63
57827;BME280;43656;57.746;11.780;2022-11-20T14:10:26;100859.38;;;3.36;86.53
57827;BME280;43656;57.746;11.780;2022-11-20T14:12:53;100858.63;;;3.25;87.56
57827;BME280;43656;57.746;11.780;2022-11-20T14:17:53;100853.84;;;3.29;87.48
57827;BME280;43656;57.746;11.780;2022-11-20T14:20:19;100839.78;;;3.37;86.97
57827;BME280;43656;57.746;11.780;2022-11-20T14:22:52;100833.31;;;3.39;86.51
57827;BME280;43656;57.746;11.780;2022-11-20T14:27:47;100829.38;;;3.25;87.51
57827;BME280;43656;57.746;11.780;2022-11-20T14:30:18;100768.25;;;2.98;88.26
57827;BME280;43656;57.746;11.780;2022-11-20T14:32:45;100822.06;;;3.27;88.62
57827;BME280;43656;57.746;11.780;2022-11-20T14:35:24;100814.72;;;3.21;88.62
57827;BME280;43656;57.746;11.780;2022-11-20T14:37:51;100828.97;;;3.20;88.95
57827;BME280;43656;57.746;11.780;2022-11-20T14:40:32;100826.78;;;3.34;88.34
57827;BME280;43656;57.746;11.780;2022-11-20T14:43:00;100787.72;;;2.98;89.54